sensor_id;sensor_type;location;lat;lon;timestamp;pressure;altitude;pressure_sealevel;temperature
28305;BMP280;15569;42.652;23.040;2023-05-07T00:01:37;93194.00;;;17.47
28305;BMP280;15569;42.652;23.040;2023-05-07T00:04:03;93204.38;;;17.49
28305;BMP280;15569;42.652;23.040;2023-05-07T00:06:29;93196.75;;;17.47
28305;BMP280;15569;42.652;23.040;2023-05-07T00:08:56;93196.00;;;17.45
28305;BMP280;15569;42.652;23.040;2023-05-07T00:11:21;93193.91;;;17.43
28305;BMP280;15569;42.652;23.040;2023-05-07T00:13:47;93187.47;;;17.35
28305;BMP280;15569;42.652;23.040;2023-05-07T00:16:13;93195.72;;;17.35
28305;BMP280;15569;42.652;23.040;2023-05-07T00:18:38;93195.59;;;17.29
28305;BMP280;15569;42.652;23.040;2023-05-07T00:21:04;93194.88;;;17.28
28305;BMP280;15569;42.652;23.040;2023-05-07T00:23:29;93198.25;;;17.27
28305;BMP280;15569;42.652;23.040;2023-05-07T00:25:56;93190.72;;;17.27
28305;BMP280;15569;42.652;23.040;2023-05-07T00:28:21;93189.97;;;17.25
28305;BMP280;15569;42.652;23.040;2023-05-07T00:30:46;93197.50;;;17.24
28305;BMP280;15569;42.652;23.040;2023-05-07T00:33:12;93191.72;;;17.14
28305;BMP280;15569;42.652;23.040;2023-05-07T00:35:37;93197.97;;;17.16
28305;BMP280;15569;42.652;23.040;2023-05-07T00:38:03;93194.59;;;17.18
28305;BMP280;15569;42.652;23.040;2023-05-07T00:40:28;93189.69;;;17.14
28305;BMP280;15569;42.652;23.040;2023-05-07T00:42:53;93187.66;;;17.15
28305;BMP280;15569;42.652;23.040;2023-05-07T00:45:26;93195.19;;;17.14
28305;BMP280;15569;42.652;23.040;2023-05-07T00:47:53;93188.88;;;17.10
28305;BMP280;15569;42.652;23.040;2023-05-07T00:50:19;93188.81;;;17.08
28305;BMP280;15569;42.652;23.040;2023-05-07T00:52:45;93190.88;;;17.07
28305;BMP280;15569;42.652;23.040;2023-05-07T00:55:11;93193.56;;;17.05
28305;BMP280;15569;42.652;23.040;2023-05-07T00:57:39;93178.25;;;16.98
28305;BMP280;15569;42.652;23.040;2023-05-07T01:00:06;93180.91;;;16.96
28305;BMP280;15569;42.652;23.040;2023-05-07T01:02:32;93190.63;;;16.99
28305;BMP280;15569;42.652;23.040;2023-05-07T01:04:59;93202.31;;;17.00
28305;BMP280;15569;42.652;23.040;2023-05-07T01:07:25;93192.09;;;17.02
28305;BMP280;15569;42.652;23.040;2023-05-07T01:09:51;93189.31;;;17.00
28305;BMP280;15569;42.652;23.040;2023-05-07T01:12:17;93182.31;;;16.95
28305;BMP280;15569;42.652;23.040;2023-05-07T01:14:42;93189.25;;;16.98
28305;BMP280;15569;42.652;23.040;2023-05-07T01:17:07;93190.53;;;16.95
28305;BMP280;15569;42.652;23.040;2023-05-07T01:19:33;93188.34;;;16.92
28305;BMP280;15569;42.652;23.040;2023-05-07T01:22:03;93189.00;;;16.90
28305;BMP280;15569;42.652;23.040;2023-05-07T01:24:31;93185.50;;;16.88
28305;BMP280;15569;42.652;23.040;2023-05-07T01:26:57;93195.75;;;16.87
28305;BMP280;15569;42.652;23.040;2023-05-07T01:29:23;93190.94;;;16.86
28305;BMP280;15569;42.652;23.040;2023-05-07T01:31:49;93188.06;;;16.82
28305;BMP280;15569;42.652;23.040;2023-05-07T01:34:17;93194.38;;;16.86
28305;BMP280;15569;42.652;23.040;2023-05-07T01:36:44;93186.91;;;16.89
28305;BMP280;15569;42.652;23.040;2023-05-07T01:39:10;93183.41;;;16.86
28305;BMP280;15569;42.652;23.040;2023-05-07T01:41:35;93180.53;;;16.82
28305;BMP280;15569;42.652;23.040;2023-05-07T01:44:02;93173.78;;;16.85
28305;BMP280;15569;42.652;23.040;2023-05-07T01:46:28;93180.59;;;16.84
28305;BMP280;15569;42.652;23.040;2023-05-07T01:48:55;93175.09;;;16.84
28305;BMP280;15569;42.652;23.040;2023-05-07T01:51:21;93174.34;;;16.82
28305;BMP280;15569;42.652;23.040;2023-05-07T01:53:47;93185.13;;;16.76
28305;BMP280;15569;42.652;23.040;2023-05-07T01:56:16;93175.34;;;16.69
28305;BMP280;15569;42.652;23.040;2023-05-07T01:58:42;93174.75;;;16.72
28305;BMP280;15569;42.652;23.040;2023-05-07T02:01:07;93163.66;;;16.68
28305;BMP280;15569;42.652;23.040;2023-05-07T02:03:33;93164.25;;;16.65
28305;BMP280;15569;42.652;23.040;2023-05-07T02:05:58;93164.09;;;16.61
28305;BMP280;15569;42.652;23.040;2023-05-07T02:08:23;93152.38;;;16.58
28305;BMP280;15569;42.652;23.040;2023-05-07T02:10:49;93158.59;;;16.61
28305;BMP280;15569;42.652;23.040;2023-05-07T02:13:15;93155.88;;;16.61
28305;BMP280;15569;42.652;23.040;2023-05-07T02:15:40;93161.34;;;16.61
28305;BMP280;15569;42.652;23.040;2023-05-07T02:18:08;93166.16;;;16.60
28305;BMP280;15569;42.652;23.040;2023-05-07T02:20:34;93165.47;;;16.60
28305;BMP280;15569;42.652;23.040;2023-05-07T02:23:00;93168.75;;;16.54
28305;BMP280;15569;42.652;23.040;2023-05-07T02:25:25;93159.16;;;16.55
28305;BMP280;15569;42.652;23.040;2023-05-07T02:27:51;93157.69;;;16.52
28305;BMP280;15569;42.652;23.040;2023-05-07T02:30:16;93165.31;;;16.54
28305;BMP280;15569;42.652;23.040;2023-05-07T02:32:42;93162.59;;;16.56
28305;BMP280;15569;42.652;23.040;2023-05-07T02:35:07;93165.91;;;16.52
28305;BMP280;15569;42.652;23.040;2023-05-07T02:37:33;93154.13;;;16.48
28305;BMP280;15569;42.652;23.040;2023-05-07T02:39:58;93161.78;;;16.51
28305;BMP280;15569;42.652;23.040;2023-05-07T02:42:24;93155.59;;;16.51
28305;BMP280;15569;42.652;23.040;2023-05-07T02:44:49;93159.69;;;16.50
28305;BMP280;15569;42.652;23.040;2023-05-07T02:47:15;93161.66;;;16.47
28305;BMP280;15569;42.652;23.040;2023-05-07T02:49:40;93160.41;;;16.50
28305;BMP280;15569;42.652;23.040;2023-05-07T02:52:06;93158.22;;;16.47
28305;BMP280;15569;42.652;23.040;2023-05-07T02:54:32;93154.00;;;16.44
28305;BMP280;15569;42.652;23.040;2023-05-07T02:56:57;93160.94;;;16.47
28305;BMP280;15569;42.652;23.040;2023-05-07T02:59:23;93176.66;;;16.44
28305;BMP280;15569;42.652;23.040;2023-05-07T03:01:48;93164.22;;;16.41
28305;BMP280;15569;42.652;23.040;2023-05-07T03:04:14;93177.38;;;16.45
28305;BMP280;15569;42.652;23.040;2023-05-07T03:06:39;93162.88;;;16.42
28305;BMP280;15569;42.652;23.040;2023-05-07T03:09:05;93171.19;;;16.44
28305;BMP280;15569;42.652;23.040;2023-05-07T03:11:30;93161.47;;;16.41
28305;BMP280;15569;42.652;23.040;2023-05-07T03:13:56;93160.81;;;16.43
28305;BMP280;15569;42.652;23.040;2023-05-07T03:16:21;93169.16;;;16.45
28305;BMP280;15569;42.652;23.040;2023-05-07T03:18:46;93161.53;;;16.43
28305;BMP280;15569;42.652;23.040;2023-05-07T03:21:12;93166.44;;;16.47
28305;BMP280;15569;42.652;23.040;2023-05-07T03:23:37;93161.44;;;16.39
28305;BMP280;15569;42.652;23.040;2023-05-07T03:26:03;93171.75;;;16.41
28305;BMP280;15569;42.652;23.040;2023-05-07T03:28:28;93174.97;;;16.33
28305;BMP280;15569;42.652;23.040;2023-05-07T03:30:54;93175.06;;;16.37
28305;BMP280;15569;42.652;23.040;2023-05-07T03:33:19;93189.44;;;16.36
28305;BMP280;15569;42.652;23.040;2023-05-07T03:35:44;93185.97;;;16.35
28305;BMP280;15569;42.652;23.040;2023-05-07T03:40:55;93192.25;;;16.38
28305;BMP280;15569;42.652;23.040;2023-05-07T03:43:21;93192.88;;;16.36
28305;BMP280;15569;42.652;23.040;2023-05-07T03:45:46;93197.59;;;16.34
28305;BMP280;15569;42.652;23.040;2023-05-07T03:48:12;93202.41;;;16.33
28305;BMP280;15569;42.652;23.040;2023-05-07T03:50:37;93202.41;;;16.33
28305;BMP280;15569;42.652;23.040;2023-05-07T03:53:03;93207.88;;;16.33
28305;BMP280;15569;42.652;23.040;2023-05-07T03:55:28;93205.91;;;16.36
28305;BMP280;15569;42.652;23.040;2023-05-07T03:57:54;93209.53;;;16.42
28305;BMP280;15569;42.652;23.040;2023-05-07T04:00:20;93219.91;;;16.46
28305;BMP280;15569;42.652;23.040;2023-05-07T04:02:46;93198.44;;;16.38
28305;BMP280;15569;42.652;23.040;2023-05-07T04:05:12;93217.25;;;16.48
28305;BMP280;15569;42.652;23.040;2023-05-07T04:07:38;93221.50;;;16.53
28305;BMP280;15569;42.652;23.040;2023-05-07T04:10:04;93220.94;;;16.56
28305;BMP280;15569;42.652;23.040;2023-05-07T04:12:29;93232.03;;;16.60
28305;BMP280;15569;42.652;23.040;2023-05-07T04:14:55;93237.66;;;16.64
28305;BMP280;15569;42.652;23.040;2023-05-07T04:17:20;93243.19;;;16.66
28305;BMP280;15569;42.652;23.040;2023-05-07T04:19:46;93247.41;;;16.69
28305;BMP280;15569;42.652;23.040;2023-05-07T04:22:11;93246.19;;;16.74
28305;BMP280;15569;42.652;23.040;2023-05-07T04:24:37;93244.84;;;16.75
28305;BMP280;15569;42.652;23.040;2023-05-07T04:27:02;93253.94;;;16.82
28305;BMP280;15569;42.652;23.040;2023-05-07T04:29:28;93250.69;;;16.87
28305;BMP280;15569;42.652;23.040;2023-05-07T04:31:53;93259.81;;;16.94
28305;BMP280;15569;42.652;23.040;2023-05-07T04:34:20;93253.75;;;16.97
28305;BMP280;15569;42.652;23.040;2023-05-07T04:36:46;93253.19;;;17.01
28305;BMP280;15569;42.652;23.040;2023-05-07T04:39:11;93255.44;;;17.08
28305;BMP280;15569;42.652;23.040;2023-05-07T04:41:37;93256.88;;;17.11
28305;BMP280;15569;42.652;23.040;2023-05-07T04:44:02;93251.56;;;17.17
28305;BMP280;15569;42.652;23.040;2023-05-07T04:46:29;93251.75;;;17.24
28305;BMP280;15569;42.652;23.040;2023-05-07T04:48:54;93256.06;;;17.31
28305;BMP280;15569;42.652;23.040;2023-05-07T04:51:20;93255.50;;;17.34
28305;BMP280;15569;42.652;23.040;2023-05-07T04:53:45;93256.28;;;17.39
28305;BMP280;15569;42.652;23.040;2023-05-07T04:56:11;93260.50;;;17.42
28305;BMP280;15569;42.652;23.040;2023-05-07T04:58:36;93253.91;;;17.53
28305;BMP280;15569;42.652;23.040;2023-05-07T05:01:02;93257.50;;;17.57
28305;BMP280;15569;42.652;23.040;2023-05-07T05:03:27;93256.34;;;17.64
28305;BMP280;15569;42.652;23.040;2023-05-07T05:05:52;93256.41;;;17.68
28305;BMP280;15569;42.652;23.040;2023-05-07T05:08:18;93258.69;;;17.76
28305;BMP280;15569;42.652;23.040;2023-05-07T05:10:44;93250.38;;;17.74
28305;BMP280;15569;42.652;23.040;2023-05-07T05:13:10;93253.75;;;17.47
28305;BMP280;15569;42.652;23.040;2023-05-07T05:15:38;93263.41;;;16.77
28305;BMP280;15569;42.652;23.040;2023-05-07T05:18:03;93260.81;;;17.28
28305;BMP280;15569;42.652;23.040;2023-05-07T05:20:28;93253.91;;;17.53
28305;BMP280;15569;42.652;23.040;2023-05-07T05:22:54;93249.25;;;17.57
28305;BMP280;15569;42.652;23.040;2023-05-07T05:25:20;93262.78;;;16.78
28305;BMP280;15569;42.652;23.040;2023-05-07T05:27:45;93261.63;;;17.33
28305;BMP280;15569;42.652;23.040;2023-05-07T05:30:11;93259.47;;;17.29
28305;BMP280;15569;42.652;23.040;2023-05-07T05:32:37;93264.13;;;17.48
28305;BMP280;15569;42.652;23.040;2023-05-07T05:35:02;93256.66;;;17.03
28305;BMP280;15569;42.652;23.040;2023-05-07T05:37:28;93268.03;;;17.15
28305;BMP280;15569;42.652;23.040;2023-05-07T05:42:40;93261.22;;;16.95
28305;BMP280;15569;42.652;23.040;2023-05-07T05:45:06;93263.88;;;16.69
28305;BMP280;15569;42.652;23.040;2023-05-07T05:47:32;93270.03;;;16.91
28305;BMP280;15569;42.652;23.040;2023-05-07T05:49:57;93268.69;;;17.16
28305;BMP280;15569;42.652;23.040;2023-05-07T05:52:23;93264.72;;;17.45
28305;BMP280;15569;42.652;23.040;2023-05-07T05:54:51;93263.91;;;17.66
28305;BMP280;15569;42.652;23.040;2023-05-07T05:57:16;93267.25;;;17.88
28305;BMP280;15569;42.652;23.040;2023-05-07T05:59:42;93260.66;;;17.99
28305;BMP280;15569;42.652;23.040;2023-05-07T06:02:07;93260.19;;;17.32
28305;BMP280;15569;42.652;23.040;2023-05-07T06:04:33;93264.00;;;17.70
28305;BMP280;15569;42.652;23.040;2023-05-07T06:06:58;93260.69;;;18.01
28305;BMP280;15569;42.652;23.040;2023-05-07T06:09:23;93265.53;;;17.49
28305;BMP280;15569;42.652;23.040;2023-05-07T06:11:49;93269.22;;;17.85
28305;BMP280;15569;42.652;23.040;2023-05-07T06:14:14;93263.75;;;18.13
28305;BMP280;15569;42.652;23.040;2023-05-07T06:16:40;93264.84;;;17.49
28305;BMP280;15569;42.652;23.040;2023-05-07T06:19:05;93261.44;;;17.76
28305;BMP280;15569;42.652;23.040;2023-05-07T06:21:30;93261.94;;;17.70
28305;BMP280;15569;42.652;23.040;2023-05-07T06:23:56;93261.59;;;18.09
28305;BMP280;15569;42.652;23.040;2023-05-07T06:26:21;93245.72;;;18.36
28305;BMP280;15569;42.652;23.040;2023-05-07T06:28:47;93249.00;;;18.58
28305;BMP280;15569;42.652;23.040;2023-05-07T06:31:13;93245.03;;;18.07
28305;BMP280;15569;42.652;23.040;2023-05-07T06:33:39;93248.97;;;18.28
28305;BMP280;15569;42.652;23.040;2023-05-07T06:36:05;93233.16;;;18.58
28305;BMP280;15569;42.652;23.040;2023-05-07T06:38:31;93246.75;;;18.82
28305;BMP280;15569;42.652;23.040;2023-05-07T06:40:56;93238.41;;;19.09
28305;BMP280;15569;42.652;23.040;2023-05-07T06:43:22;93224.78;;;19.17
28305;BMP280;15569;42.652;23.040;2023-05-07T06:45:47;93228.72;;;19.06
28305;BMP280;15569;42.652;23.040;2023-05-07T06:48:13;93224.06;;;19.17
28305;BMP280;15569;42.652;23.040;2023-05-07T06:50:38;93239.16;;;19.12
28305;BMP280;15569;42.652;23.040;2023-05-07T06:53:04;93227.91;;;19.02
28305;BMP280;15569;42.652;23.040;2023-05-07T06:55:29;93228.38;;;19.24
28305;BMP280;15569;42.652;23.040;2023-05-07T06:57:54;93237.28;;;18.57
28305;BMP280;15569;42.652;23.040;2023-05-07T07:00:20;93226.75;;;18.79
28305;BMP280;15569;42.652;23.040;2023-05-07T07:02:45;93229.88;;;18.34
28305;BMP280;15569;42.652;23.040;2023-05-07T07:05:10;93226.22;;;18.87
28305;BMP280;15569;42.652;23.040;2023-05-07T07:07:36;93228.72;;;19.08
28305;BMP280;15569;42.652;23.040;2023-05-07T07:10:02;93236.03;;;18.62
28305;BMP280;15569;42.652;23.040;2023-05-07T07:12:29;93231.09;;;18.90
28305;BMP280;15569;42.652;23.040;2023-05-07T07:14:55;93236.66;;;18.92
28305;BMP280;15569;42.652;23.040;2023-05-07T07:17:20;93232.59;;;18.95
28305;BMP280;15569;42.652;23.040;2023-05-07T07:19:46;93230.56;;;18.35
28305;BMP280;15569;42.652;23.040;2023-05-07T07:22:11;93221.03;;;18.10
28305;BMP280;15569;42.652;23.040;2023-05-07T07:24:36;93223.84;;;18.42
28305;BMP280;15569;42.652;23.040;2023-05-07T07:27:02;93228.16;;;18.51
28305;BMP280;15569;42.652;23.040;2023-05-07T07:29:27;93215.19;;;18.87
28305;BMP280;15569;42.652;23.040;2023-05-07T07:31:53;93222.78;;;19.22
28305;BMP280;15569;42.652;23.040;2023-05-07T07:34:18;93217.63;;;19.40
28305;BMP280;15569;42.652;23.040;2023-05-07T07:36:44;93230.78;;;19.42
28305;BMP280;15569;42.652;23.040;2023-05-07T07:39:09;93240.09;;;19.60
28305;BMP280;15569;42.652;23.040;2023-05-07T07:44:20;93234.22;;;20.21
28305;BMP280;15569;42.652;23.040;2023-05-07T07:46:45;93238.50;;;19.87
28305;BMP280;15569;42.652;23.040;2023-05-07T07:49:10;93251.41;;;20.16
28305;BMP280;15569;42.652;23.040;2023-05-07T07:51:36;93245.16;;;19.74
28305;BMP280;15569;42.652;23.040;2023-05-07T07:54:01;93251.75;;;19.96
28305;BMP280;15569;42.652;23.040;2023-05-07T07:56:27;93249.84;;;20.49
28305;BMP280;15569;42.652;23.040;2023-05-07T07:58:53;93244.88;;;19.97
28305;BMP280;15569;42.652;23.040;2023-05-07T08:01:18;93246.22;;;20.36
28305;BMP280;15569;42.652;23.040;2023-05-07T08:03:43;93240.63;;;19.90
28305;BMP280;15569;42.652;23.040;2023-05-07T08:06:09;93244.84;;;20.37
28305;BMP280;15569;42.652;23.040;2023-05-07T08:08:35;93243.88;;;20.64
28305;BMP280;15569;42.652;23.040;2023-05-07T08:11:00;93241.16;;;20.68
28305;BMP280;15569;42.652;23.040;2023-05-07T08:13:26;93238.78;;;20.96
28305;BMP280;15569;42.652;23.040;2023-05-07T08:15:51;93231.91;;;20.97
28305;BMP280;15569;42.652;23.040;2023-05-07T08:18:16;93238.72;;;19.99
28305;BMP280;15569;42.652;23.040;2023-05-07T08:20:42;93233.22;;;20.01
28305;BMP280;15569;42.652;23.040;2023-05-07T08:23:07;93232.28;;;19.86
28305;BMP280;15569;42.652;23.040;2023-05-07T08:25:33;93232.06;;;20.14
28305;BMP280;15569;42.652;23.040;2023-05-07T08:27:59;93223.03;;;20.11
28305;BMP280;15569;42.652;23.040;2023-05-07T08:30:25;93228.03;;;20.71
28305;BMP280;15569;42.652;23.040;2023-05-07T08:32:50;93218.22;;;20.58
28305;BMP280;15569;42.652;23.040;2023-05-07T08:35:15;93224.34;;;20.08
28305;BMP280;15569;42.652;23.040;2023-05-07T08:37:41;93213.81;;;19.97
28305;BMP280;15569;42.652;23.040;2023-05-07T08:40:06;93225.25;;;20.21
28305;BMP280;15569;42.652;23.040;2023-05-07T08:42:35;93218.78;;;20.50
28305;BMP280;15569;42.652;23.040;2023-05-07T08:45:02;93215.59;;;20.20
28305;BMP280;15569;42.652;23.040;2023-05-07T08:47:42;93209.38;;;20.19
28305;BMP280;15569;42.652;23.040;2023-05-07T08:50:10;93208.59;;;20.15
28305;BMP280;15569;42.652;23.040;2023-05-07T08:52:36;93213.00;;;19.88
28305;BMP280;15569;42.652;23.040;2023-05-07T08:55:02;93207.25;;;19.37
28305;BMP280;15569;42.652;23.040;2023-05-07T08:57:28;93212.16;;;19.78
28305;BMP280;15569;42.652;23.040;2023-05-07T08:59:53;93210.97;;;19.51
28305;BMP280;15569;42.652;23.040;2023-05-07T09:02:19;93208.06;;;19.81
28305;BMP280;15569;42.652;23.040;2023-05-07T09:04:45;93197.75;;;20.29
28305;BMP280;15569;42.652;23.040;2023-05-07T09:07:10;93201.19;;;20.75
28305;BMP280;15569;42.652;23.040;2023-05-07T09:09:36;93194.88;;;21.22
28305;BMP280;15569;42.652;23.040;2023-05-07T09:12:02;93194.53;;;21.60
28305;BMP280;15569;42.652;23.040;2023-05-07T09:14:29;93194.06;;;21.82
28305;BMP280;15569;42.652;23.040;2023-05-07T09:16:55;93192.53;;;21.65
28305;BMP280;15569;42.652;23.040;2023-05-07T09:19:25;93182.88;;;21.66
28305;BMP280;15569;42.652;23.040;2023-05-07T09:21:58;93187.91;;;21.89
28305;BMP280;15569;42.652;23.040;2023-05-07T09:24:23;93184.56;;;22.05
28305;BMP280;15569;42.652;23.040;2023-05-07T09:26:49;93190.25;;;22.25
28305;BMP280;15569;42.652;23.040;2023-05-07T09:29:15;93179.22;;;22.35
28305;BMP280;15569;42.652;23.040;2023-05-07T09:31:40;93181.44;;;22.56
28305;BMP280;15569;42.652;23.040;2023-05-07T09:34:06;93183.66;;;22.86
28305;BMP280;15569;42.652;23.040;2023-05-07T09:36:32;93174.66;;;22.87
28305;BMP280;15569;42.652;23.040;2023-05-07T09:39:01;93177.22;;;22.47
28305;BMP280;15569;42.652;23.040;2023-05-07T09:41:28;93173.22;;;22.74
28305;BMP280;15569;42.652;23.040;2023-05-07T09:46:42;93169.09;;;22.83
28305;BMP280;15569;42.652;23.040;2023-05-07T09:49:12;93167.78;;;23.09
28305;BMP280;15569;42.652;23.040;2023-05-07T09:51:48;93164.38;;;23.32
28305;BMP280;15569;42.652;23.040;2023-05-07T09:54:14;93161.56;;;23.10
28305;BMP280;15569;42.652;23.040;2023-05-07T09:56:40;93165.63;;;22.85
28305;BMP280;15569;42.652;23.040;2023-05-07T09:59:10;93155.84;;;22.66
28305;BMP280;15569;42.652;23.040;2023-05-07T10:01:38;93164.31;;;23.10
28305;BMP280;15569;42.652;23.040;2023-05-07T10:04:05;93157.41;;;23.11
28305;BMP280;15569;42.652;23.040;2023-05-07T10:06:34;93157.31;;;22.83
28305;BMP280;15569;42.652;23.040;2023-05-07T10:08:59;93154.31;;;22.35
28305;BMP280;15569;42.652;23.040;2023-05-07T10:11:25;93153.41;;;22.00
28305;BMP280;15569;42.652;23.040;2023-05-07T10:13:52;93158.16;;;21.92
28305;BMP280;15569;42.652;23.040;2023-05-07T10:16:18;93154.78;;;22.01
28305;BMP280;15569;42.652;23.040;2023-05-07T10:18:44;93157.16;;;22.55
28305;BMP280;15569;42.652;23.040;2023-05-07T10:21:20;93145.22;;;22.22
28305;BMP280;15569;42.652;23.040;2023-05-07T10:23:54;93142.31;;;22.00
28305;BMP280;15569;42.652;23.040;2023-05-07T10:26:23;93134.25;;;21.44
28305;BMP280;15569;42.652;23.040;2023-05-07T10:28:59;93137.03;;;21.48
28305;BMP280;15569;42.652;23.040;2023-05-07T10:34:21;93131.69;;;21.69
28305;BMP280;15569;42.652;23.040;2023-05-07T10:36:48;93132.09;;;22.27
28305;BMP280;15569;42.652;23.040;2023-05-07T10:39:15;93130.00;;;22.23
28305;BMP280;15569;42.652;23.040;2023-05-07T10:41:40;93124.97;;;21.96
28305;BMP280;15569;42.652;23.040;2023-05-07T10:44:06;93133.06;;;21.66
28305;BMP280;15569;42.652;23.040;2023-05-07T10:46:32;93128.66;;;22.34
28305;BMP280;15569;42.652;23.040;2023-05-07T10:51:30;93127.22;;;22.25
28305;BMP280;15569;42.652;23.040;2023-05-07T10:56:41;93116.13;;;22.15
28305;BMP280;15569;42.652;23.040;2023-05-07T11:01:58;93121.28;;;22.83
28305;BMP280;15569;42.652;23.040;2023-05-07T11:04:24;93121.38;;;23.47
28305;BMP280;15569;42.652;23.040;2023-05-07T11:12:16;93122.72;;;23.10
28305;BMP280;15569;42.652;23.040;2023-05-07T11:17:08;93122.09;;;23.74
28305;BMP280;15569;42.652;23.040;2023-05-07T11:19:53;93124.19;;;23.91
28305;BMP280;15569;42.652;23.040;2023-05-07T11:22:36;93117.19;;;24.04
28305;BMP280;15569;42.652;23.040;2023-05-07T11:25:05;93120.56;;;24.51
28305;BMP280;15569;42.652;23.040;2023-05-07T11:27:32;93114.06;;;25.03
28305;BMP280;15569;42.652;23.040;2023-05-07T11:29:58;93114.50;;;25.37
28305;BMP280;15569;42.652;23.040;2023-05-07T11:32:25;93114.91;;;25.78
28305;BMP280;15569;42.652;23.040;2023-05-07T11:34:54;93105.06;;;24.94
28305;BMP280;15569;42.652;23.040;2023-05-07T11:37:21;93115.84;;;23.95
28305;BMP280;15569;42.652;23.040;2023-05-07T11:39:47;93115.81;;;24.09
28305;BMP280;15569;42.652;23.040;2023-05-07T11:42:33;93105.41;;;24.10
28305;BMP280;15569;42.652;23.040;2023-05-07T11:44:59;93105.41;;;24.10
28305;BMP280;15569;42.652;23.040;2023-05-07T11:47:25;93101.63;;;24.88
28305;BMP280;15569;42.652;23.040;2023-05-07T11:49:54;93106.25;;;25.25
28305;BMP280;15569;42.652;23.040;2023-05-07T11:52:22;93108.19;;;25.47
28305;BMP280;15569;42.652;23.040;2023-05-07T11:54:51;93119.28;;;25.53
28305;BMP280;15569;42.652;23.040;2023-05-07T11:57:18;93103.47;;;25.25
28305;BMP280;15569;42.652;23.040;2023-05-07T11:59:43;93092.72;;;25.66
28305;BMP280;15569;42.652;23.040;2023-05-07T12:02:15;93100.91;;;25.84
28305;BMP280;15569;42.652;23.040;2023-05-07T12:04:41;93098.97;;;26.35
28305;BMP280;15569;42.652;23.040;2023-05-07T12:07:15;93099.84;;;26.78
28305;BMP280;15569;42.652;23.040;2023-05-07T12:09:42;93092.28;;;27.19
28305;BMP280;15569;42.652;23.040;2023-05-07T12:12:08;93088.63;;;27.27
28305;BMP280;15569;42.652;23.040;2023-05-07T12:14:43;93084.81;;;27.06
28305;BMP280;15569;42.652;23.040;2023-05-07T12:17:11;93087.59;;;26.55
28305;BMP280;15569;42.652;23.040;2023-05-07T12:19:38;93081.25;;;25.21
28305;BMP280;15569;42.652;23.040;2023-05-07T12:22:04;93083.41;;;25.96
28305;BMP280;15569;42.652;23.040;2023-05-07T12:24:44;93079.59;;;26.23
28305;BMP280;15569;42.652;23.040;2023-05-07T12:27:10;93075.50;;;25.43
28305;BMP280;15569;42.652;23.040;2023-05-07T12:29:35;93083.06;;;25.55
28305;BMP280;15569;42.652;23.040;2023-05-07T12:32:04;93079.03;;;25.38
28305;BMP280;15569;42.652;23.040;2023-05-07T12:34:31;93074.59;;;25.69
28305;BMP280;15569;42.652;23.040;2023-05-07T12:36:56;93070.59;;;25.48
28305;BMP280;15569;42.652;23.040;2023-05-07T12:39:22;93075.00;;;26.58
28305;BMP280;15569;42.652;23.040;2023-05-07T12:41:55;93053.41;;;27.05
28305;BMP280;15569;42.652;23.040;2023-05-07T12:44:24;93064.69;;;26.47
28305;BMP280;15569;42.652;23.040;2023-05-07T12:49:35;93051.25;;;27.10
28305;BMP280;15569;42.652;23.040;2023-05-07T12:52:04;93055.13;;;27.70
28305;BMP280;15569;42.652;23.040;2023-05-07T12:54:34;93052.19;;;27.78
28305;BMP280;15569;42.652;23.040;2023-05-07T12:57:05;93040.00;;;28.30
28305;BMP280;15569;42.652;23.040;2023-05-07T13:01:57;93042.34;;;27.81
28305;BMP280;15569;42.652;23.040;2023-05-07T13:04:24;93040.19;;;27.46
28305;BMP280;15569;42.652;23.040;2023-05-07T13:06:50;93041.31;;;26.20
28305;BMP280;15569;42.652;23.040;2023-05-07T13:09:15;93045.88;;;26.45
28305;BMP280;15569;42.652;23.040;2023-05-07T13:11:40;93040.69;;;27.57
28305;BMP280;15569;42.652;23.040;2023-05-07T13:14:06;93033.72;;;27.95
28305;BMP280;15569;42.652;23.040;2023-05-07T13:16:31;93031.38;;;26.87
28305;BMP280;15569;42.652;23.040;2023-05-07T13:18:56;93024.47;;;26.30
28305;BMP280;15569;42.652;23.040;2023-05-07T13:21:22;93028.25;;;26.59
28305;BMP280;15569;42.652;23.040;2023-05-07T13:23:47;93030.41;;;26.02
28305;BMP280;15569;42.652;23.040;2023-05-07T13:26:12;93032.56;;;25.95
28305;BMP280;15569;42.652;23.040;2023-05-07T13:28:38;93024.16;;;26.54
28305;BMP280;15569;42.652;23.040;2023-05-07T13:31:03;93023.81;;;26.80
28305;BMP280;15569;42.652;23.040;2023-05-07T13:33:29;93022.19;;;26.44
28305;BMP280;15569;42.652;23.040;2023-05-07T13:35:54;93028.47;;;26.93
28305;BMP280;15569;42.652;23.040;2023-05-07T13:38:22;93029.00;;;27.04
28305;BMP280;15569;42.652;23.040;2023-05-07T13:40:47;93030.25;;;27.55
28305;BMP280;15569;42.652;23.040;2023-05-07T13:43:13;93023.06;;;27.67
28305;BMP280;15569;42.652;23.040;2023-05-07T13:45:39;93023.78;;;27.24
28305;BMP280;15569;42.652;23.040;2023-05-07T13:48:05;93024.66;;;27.15
28305;BMP280;15569;42.652;23.040;2023-05-07T13:50:30;93025.88;;;26.81
28305;BMP280;15569;42.652;23.040;2023-05-07T13:52:56;93027.50;;;26.66
28305;BMP280;15569;42.652;23.040;2023-05-07T13:55:23;93029.84;;;26.48
28305;BMP280;15569;42.652;23.040;2023-05-07T13:57:58;93039.00;;;26.40
28305;BMP280;15569;42.652;23.040;2023-05-07T14:00:24;93043.91;;;26.36
28305;BMP280;15569;42.652;23.040;2023-05-07T14:02:50;93050.84;;;26.89
28305;BMP280;15569;42.652;23.040;2023-05-07T14:05:15;93036.63;;;27.50
28305;BMP280;15569;42.652;23.040;2023-05-07T14:07:41;93041.78;;;28.45
28305;BMP280;15569;42.652;23.040;2023-05-07T14:10:06;93046.97;;;28.94
28305;BMP280;15569;42.652;23.040;2023-05-07T14:12:32;93043.69;;;29.14
28305;BMP280;15569;42.652;23.040;2023-05-07T14:14:58;93044.28;;;29.47
28305;BMP280;15569;42.652;23.040;2023-05-07T14:17:24;93044.31;;;29.45
28305;BMP280;15569;42.652;23.040;2023-05-07T14:19:51;93044.97;;;30.01
28305;BMP280;15569;42.652;23.040;2023-05-07T14:22:22;93041.59;;;30.21
28305;BMP280;15569;42.652;23.040;2023-05-07T14:24:49;93042.25;;;30.21
28305;BMP280;15569;42.652;23.040;2023-05-07T14:27:14;93033.84;;;30.21